Time;durP1;ratioP1;P1;durP2;ratioP2;P2;SDS_P1;SDS_P2;PMS_P1;PMS_P2;Temp;Humidity;BMP_temperature;BMP_pressure;BME280_temperature;BME280_humidity;BME280_pressure;Samples;Min_cycle;Max_cycle;Signal;HPM_P1;HPM_P2
2023/08/29 00:00:45;;;;;;;;;;;;;;;;;;5078885;28;19945;-60
2023/08/29 00:03:11;;;;;;;;;;;;;;;;;;5076234;28;19913;-61
2023/08/29 00:05:38;;;;;;;;;;;;;;;;;;5072620;28;20368;-61
2023/08/29 00:08:04;;;;;;;;;;;;;;;;;;5070859;28;20360;-59
2023/08/29 00:10:30;;;;;;;;;;;;;;;;;;5065682;28;19954;-61
2023/08/29 00:12:56;;;;;;;;;;;;;;;;;;5075923;28;19958;-61
2023/08/29 00:15:21;;;;;;;;;;;;;;;;;;5060622;28;19979;-61
2023/08/29 00:17:47;;;;;;;;;;;;;;;;;;5057420;28;20257;-61
2023/08/29 00:20:13;;;;;;;;;;;;;;;;;;5074824;28;19955;-63
2023/08/29 00:22:39;;;;;;;;;;;;;;;;;;5075479;28;19985;-64
2023/08/29 00:25:05;;;;;;;;;;;;;;;;;;5078034;28;19916;-66
2023/08/29 00:27:31;;;;;;;;;;;;;;;;;;5074840;28;19966;-66
2023/08/29 00:29:57;;;;;;;;;;;;;;;;;;5073450;28;20315;-65
2023/08/29 00:32:23;;;;;;;;;;;;;;;;;;5071778;28;19917;-65
2023/08/29 00:34:49;;;;;;;;;;;;;;;;;;5059825;28;19912;-66
2023/08/29 00:37:15;;;;;;;;;;;;;;;;;;5058217;28;20356;-64
2023/08/29 00:39:40;;;;;;;;;;;;;;;;;;5061424;28;19917;-65
2023/08/29 00:42:06;;;;;;;;;;;;;;;;;;5067480;28;20010;-65
2023/08/29 00:44:32;;;;;;;;;;;;;;;;;;5069581;28;19966;-65
2023/08/29 00:46:58;;;;;;;;;;;;;;;;;;5055298;28;19909;-66
2023/08/29 00:49:24;;;;;;;;;;;;;;;;;;5059692;28;20376;-66
2023/08/29 00:51:50;;;;;;;;;;;;;;;;;;5074684;28;20000;-65
2023/08/29 00:54:16;;;;;;;;;;;;;;;;;;5072982;28;19970;-66
2023/08/29 00:56:42;;;;;;;;;;;;;;;;;;5069049;28;19964;-66
2023/08/29 00:59:08;;;;;;;;;;;;;;;;;;5070817;28;19919;-66
2023/08/29 01:01:33;;;;;;;;;;;;;;;;;;5061602;28;19912;-65
2023/08/29 01:03:59;;;;;;;;;;;;;;;;;;5066397;28;19916;-66
2023/08/29 01:06:25;;;;;;;;;;;;;;;;;;5059469;28;19913;-65
2023/08/29 01:08:51;;;;;;;;;;;;;;;;;;5069046;28;19974;-63
2023/08/29 01:11:17;;;;;;;;;;;;;;;;;;5059158;28;20491;-66
2023/08/29 01:13:43;;;;;;;;;;;;;;;;;;5054877;28;19917;-65
2023/08/29 01:16:09;;;;;;;;;;;;;;;;;;5063074;28;20326;-66
2023/08/29 01:18:35;;;;;;;;;;;;;;;;;;5067640;28;19959;-65
2023/08/29 01:21:01;;;;;;;;;;;;;;;;;;5073279;28;19955;-64
2023/08/29 01:23:26;;;;;;;;;;;;;;;;;;5056463;28;19952;-66
2023/08/29 01:25:52;;;;;;;;;;;;;;;;;;5059455;28;19912;-66
2023/08/29 01:28:18;;;;;;;;;;;;;;;;;;5053420;28;19958;-64
2023/08/29 01:30:45;;;;;;;;;;;;;;;;;;5058053;28;20376;-61
2023/08/29 01:33:11;;;;;;;;;;;;;;;;;;5065086;28;20644;-61
2023/08/29 01:35:37;;;;;;;;;;;;;;;;;;5060082;28;19949;-61
2023/08/29 01:38:03;;;;;;;;;;;;;;;;;;5054122;28;19923;-61
2023/08/29 01:40:29;;;;;;;;;;;;;;;;;;5062677;28;19912;-61
2023/08/29 01:42:55;;;;;;;;;;;;;;;;;;5066095;28;19990;-61
2023/08/29 01:45:20;;;;;;;;;;;;;;;;;;5067193;28;19956;-61
2023/08/29 01:47:46;;;;;;;;;;;;;;;;;;5068181;28;19912;-61
2023/08/29 01:50:12;;;;;;;;;;;;;;;;;;5062053;28;19919;-61
2023/08/29 01:52:38;;;;;;;;;;;;;;;;;;5073787;28;19913;-61
2023/08/29 01:55:04;;;;;;;;;;;;;;;;;;5060697;28;20372;-61
2023/08/29 01:57:30;;;;;;;;;;;;;;;;;;5063457;28;19920;-61
2023/08/29 01:59:56;;;;;;;;;;;;;;;;;;5059900;28;20276;-61
2023/08/29 02:02:22;;;;;;;;;;;;;;;;;;5069781;28;19912;-61
2023/08/29 02:04:48;;;;;;;;;;;;;;;;;;5075601;28;20016;-61
2023/08/29 02:07:14;;;;;;;;;;;;;;;;;;5068050;28;19916;-61
2023/08/29 02:09:40;;;;;;;;;;;;;;;;;;5073425;28;20368;-60
2023/08/29 02:12:06;;;;;;;;;;;;;;;;;;5063977;28;19916;-61
2023/08/29 02:14:31;;;;;;;;;;;;;;;;;;5071714;28;19977;-61
2023/08/29 02:16:57;;;;;;;;;;;;;;;;;;5063651;28;19938;-61
2023/08/29 02:19:23;;;;;;;;;;;;;;;;;;5066733;28;19952;-61
2023/08/29 02:21:49;;;;;;;;;;;;;;;;;;5072422;28;19919;-61
2023/08/29 02:24:15;;;;;;;;;;;;;;;;;;5070276;28;19924;-61
2023/08/29 02:26:41;;;;;;;;;;;;;;;;;;5062235;28;20368;-61
2023/08/29 02:29:07;;;;;;;;;;;;;;;;;;5071733;28;20039;-61
2023/08/29 02:31:33;;;;;;;;;;;;;;;;;;5060581;28;19913;-61
2023/08/29 02:33:59;;;;;;;;;;;;;;;;;;5056803;28;19908;-61
2023/08/29 02:36:24;;;;;;;;;;;;;;;;;;5066455;28;19982;-61
2023/08/29 02:38:51;;;;;;;;;;;;;;;;;;5077079;28;20008;-58
2023/08/29 02:41:17;;;;;;;;;;;;;;;;;;5068298;28;20341;-65
2023/08/29 02:43:42;;;;;;;;;;;;;;;;;;5061150;28;20013;-65
2023/08/29 02:46:08;;;;;;;;;;;;;;;;;;5081193;28;19912;-66
2023/08/29 02:48:35;;;;;;;;;;;;;;;;;;5069856;28;19919;-65
2023/08/29 02:51:01;;;;;;;;;;;;;;;;;;5061485;28;19960;-66
2023/08/29 02:53:27;;;;;;;;;;;;;;;;;;5066311;28;19951;-66
2023/08/29 02:55:53;;;;;;;;;;;;;;;;;;5069571;28;19913;-63
2023/08/29 02:58:18;;;;;;;;;;;;;;;;;;5056306;28;19909;-66
2023/08/29 03:00:44;;;;;;;;;;;;;;;;;;5056879;28;19971;-66
2023/08/29 03:03:11;;;;;;;;;;;;;;;;;;5064219;28;19913;-65
2023/08/29 03:05:37;;;;;;;;;;;;;;;;;;5056651;28;19984;-65
2023/08/29 03:08:02;;;;;;;;;;;;;;;;;;5069293;28;20312;-61
2023/08/29 03:10:28;;;;;;;;;;;;;;;;;;5074676;28;19974;-65
2023/08/29 03:12:54;;;;;;;;;;;;;;;;;;5063320;28;19912;-66
2023/08/29 03:15:20;;;;;;;;;;;;;;;;;;5071652;28;19913;-66
2023/08/29 03:17:47;;;;;;;;;;;;;;;;;;5071845;28;19968;-66
2023/08/29 03:20:13;;;;;;;;;;;;;;;;;;5059907;28;20326;-64
2023/08/29 03:22:39;;;;;;;;;;;;;;;;;;5054548;28;19959;-66
2023/08/29 03:25:08;;;;;;;;;;;;;;;;;;5077725;28;19916;-65
2023/08/29 03:27:33;;;;;;;;;;;;;;;;;;5072769;28;19965;-66
2023/08/29 03:29:59;;;;;;;;;;;;;;;;;;5053297;28;20265;-66
2023/08/29 03:32:25;;;;;;;;;;;;;;;;;;5067475;28;19917;-65
2023/08/29 03:34:51;;;;;;;;;;;;;;;;;;5064881;28;19913;-64
2023/08/29 03:37:17;;;;;;;;;;;;;;;;;;5053039;28;19917;-66
2023/08/29 03:39:43;;;;;;;;;;;;;;;;;;5062950;28;19913;-66
2023/08/29 03:42:09;;;;;;;;;;;;;;;;;;5072088;28;19914;-66
2023/08/29 03:44:35;;;;;;;;;;;;;;;;;;5066047;28;19967;-64
2023/08/29 03:47:01;;;;;;;;;;;;;;;;;;5062241;28;20003;-66
2023/08/29 03:49:27;;;;;;;;;;;;;;;;;;5061690;28;19948;-64
2023/08/29 03:51:52;;;;;;;;;;;;;;;;;;5053995;28;19946;-65
2023/08/29 03:54:18;;;;;;;;;;;;;;;;;;5057110;28;19937;-66
2023/08/29 03:56:44;;;;;;;;;;;;;;;;;;5065042;28;19919;-66
2023/08/29 03:59:10;;;;;;;;;;;;;;;;;;5055354;28;19952;-66
2023/08/29 04:01:36;;;;;;;;;;;;;;;;;;5068672;28;19913;-63
2023/08/29 04:04:03;;;;;;;;;;;;;;;;;;5052556;28;20409;-66
2023/08/29 04:06:33;;;;;;;;;;;;;;;;;;5064286;28;19938;-63
2023/08/29 04:08:59;;;;;;;;;;;;;;;;;;5062649;28;19917;-62
2023/08/29 04:11:25;;;;;;;;;;;;;;;;;;5065222;28;20394;-66
2023/08/29 04:13:51;;;;;;;;;;;;;;;;;;5058815;28;19928;-64
2023/08/29 04:16:17;;;;;;;;;;;;;;;;;;5058479;28;19921;-66
2023/08/29 04:18:43;;;;;;;;;;;;;;;;;;5061259;28;19951;-66
2023/08/29 04:21:09;;;;;;;;;;;;;;;;;;5064799;28;19935;-65
2023/08/29 04:23:35;;;;;;;;;;;;;;;;;;5068749;28;19916;-66
2023/08/29 04:26:01;;;;;;;;;;;;;;;;;;5063996;28;19938;-65
2023/08/29 04:28:27;;;;;;;;;;;;;;;;;;5060338;28;20063;-64
2023/08/29 04:30:52;;;;;;;;;;;;;;;;;;5069240;28;19935;-65
2023/08/29 04:33:18;;;;;;;;;;;;;;;;;;5074480;28;19915;-65
2023/08/29 04:35:44;;;;;;;;;;;;;;;;;;5064160;28;20512;-66
2023/08/29 04:38:10;;;;;;;;;;;;;;;;;;5069886;28;20041;-64
2023/08/29 04:40:36;;;;;;;;;;;;;;;;;;5069698;28;19913;-66
2023/08/29 04:43:02;;;;;;;;;;;;;;;;;;5070267;28;19963;-65
2023/08/29 04:45:28;;;;;;;;;;;;;;;;;;5069297;28;19974;-65
2023/08/29 04:47:54;;;;;;;;;;;;;;;;;;5073095;28;20332;-65
2023/08/29 04:50:20;;;;;;;;;;;;;;;;;;5060220;28;20004;-66
2023/08/29 04:52:46;;;;;;;;;;;;;;;;;;5062182;28;20283;-65
2023/08/29 04:55:13;;;;;;;;;;;;;;;;;;5056953;28;19916;-64
2023/08/29 04:57:38;;;;;;;;;;;;;;;;;;5061539;28;19920;-65
2023/08/29 05:00:05;;;;;;;;;;;;;;;;;;5068912;28;19963;-62
2023/08/29 05:02:32;;;;;;;;;;;;;;;;;;5064349;28;19923;-64
2023/08/29 05:04:57;;;;;;;;;;;;;;;;;;5059154;28;19921;-63
2023/08/29 05:07:24;;;;;;;;;;;;;;;;;;5062927;28;20283;-66
2023/08/29 05:09:50;;;;;;;;;;;;;;;;;;5066491;28;19928;-66
2023/08/29 05:12:16;;;;;;;;;;;;;;;;;;5065274;28;19948;-66
2023/08/29 05:14:42;;;;;;;;;;;;;;;;;;5067174;28;19928;-66
2023/08/29 05:17:09;;;;;;;;;;;;;;;;;;5062449;28;20388;-65
2023/08/29 05:19:34;;;;;;;;;;;;;;;;;;5069138;28;19917;-65
2023/08/29 05:22:00;;;;;;;;;;;;;;;;;;5062852;28;20322;-66
2023/08/29 05:24:26;;;;;;;;;;;;;;;;;;5061583;28;19956;-66
2023/08/29 05:26:52;;;;;;;;;;;;;;;;;;5069747;28;20019;-65
2023/08/29 05:29:18;;;;;;;;;;;;;;;;;;5060937;28;19916;-65
2023/08/29 05:31:44;;;;;;;;;;;;;;;;;;5063998;28;19935;-65
2023/08/29 05:34:10;;;;;;;;;;;;;;;;;;5055845;28;19958;-62
2023/08/29 05:36:36;;;;;;;;;;;;;;;;;;5058844;28;20384;-61
2023/08/29 05:39:02;;;;;;;;;;;;;;;;;;5063879;28;19923;-66
2023/08/29 05:41:28;;;;;;;;;;;;;;;;;;5063224;28;19916;-65
2023/08/29 05:43:54;;;;;;;;;;;;;;;;;;5067711;28;19916;-65
2023/08/29 05:46:20;;;;;;;;;;;;;;;;;;5059290;28;19912;-63
2023/08/29 05:48:46;;;;;;;;;;;;;;;;;;5067870;28;20318;-65
2023/08/29 05:51:12;;;;;;;;;;;;;;;;;;5071362;28;19947;-64
2023/08/29 05:53:38;;;;;;;;;;;;;;;;;;5072867;28;19923;-66
2023/08/29 05:56:04;;;;;;;;;;;;;;;;;;5072522;28;19959;-65
2023/08/29 05:58:30;;;;;;;;;;;;;;;;;;5065725;28;19955;-65
2023/08/29 06:00:55;;;;;;;;;;;;;;;;;;5073272;28;20383;-65
2023/08/29 06:03:22;;;;;;;;;;;;;;;;;;5066109;28;20234;-66
2023/08/29 06:05:48;;;;;;;;;;;;;;;;;;5060809;28;19978;-66
2023/08/29 06:08:14;;;;;;;;;;;;;;;;;;5069544;28;20427;-66
2023/08/29 06:10:40;;;;;;;;;;;;;;;;;;5063773;28;20008;-65
2023/08/29 06:13:06;;;;;;;;;;;;;;;;;;5069154;28;19908;-65
2023/08/29 06:15:32;;;;;;;;;;;;;;;;;;5059717;28;19916;-64
2023/08/29 06:17:58;;;;;;;;;;;;;;;;;;5069749;28;19912;-65
2023/08/29 06:20:24;;;;;;;;;;;;;;;;;;5066870;28;19944;-66
2023/08/29 06:22:50;;;;;;;;;;;;;;;;;;5070430;28;19912;-66
2023/08/29 06:25:16;;;;;;;;;;;;;;;;;;5069347;28;20287;-64
2023/08/29 06:27:41;;;;;;;;;;;;;;;;;;5069909;28;19947;-66
2023/08/29 06:30:07;;;;;;;;;;;;;;;;;;5073021;28;20086;-66
2023/08/29 06:32:33;;;;;;;;;;;;;;;;;;5068295;28;19998;-62
2023/08/29 06:34:59;;;;;;;;;;;;;;;;;;5072044;28;19998;-64
2023/08/29 06:37:25;;;;;;;;;;;;;;;;;;5067207;28;19912;-65
2023/08/29 06:39:51;;;;;;;;;;;;;;;;;;5071612;28;20418;-65
2023/08/29 06:42:17;;;;;;;;;;;;;;;;;;5068813;28;19916;-66
2023/08/29 06:44:43;;;;;;;;;;;;;;;;;;5068200;28;19974;-66
2023/08/29 06:47:09;;;;;;;;;;;;;;;;;;5071816;28;20613;-65
2023/08/29 06:49:35;;;;;;;;;;;;;;;;;;5069794;28;19936;-66
2023/08/29 06:52:01;;;;;;;;;;;;;;;;;;5067472;28;19962;-66
2023/08/29 06:54:28;;;;;;;;;;;;;;;;;;5064899;28;19947;-66
2023/08/29 06:56:54;;;;;;;;;;;;;;;;;;5064392;28;20011;-66
2023/08/29 06:59:20;;;;;;;;;;;;;;;;;;5070149;28;19956;-66
2023/08/29 07:01:46;;;;;;;;;;;;;;;;;;5071311;28;20344;-66
2023/08/29 07:04:12;;;;;;;;;;;;;;;;;;5071651;28;20006;-66
2023/08/29 07:06:39;;;;;;;;;;;;;;;;;;5071685;28;19965;-65
2023/08/29 07:09:05;;;;;;;;;;;;;;;;;;5071281;28;20632;-65
2023/08/29 07:11:31;;;;;;;;;;;;;;;;;;5069847;28;19966;-65
2023/08/29 07:13:57;;;;;;;;;;;;;;;;;;5071669;28;19942;-66
2023/08/29 07:16:23;;;;;;;;;;;;;;;;;;5066740;28;19947;-65
2023/08/29 07:18:49;;;;;;;;;;;;;;;;;;5071648;28;19912;-58
2023/08/29 07:21:16;;;;;;;;;;;;;;;;;;5071428;28;20003;-60
2023/08/29 07:23:44;;;;;;;;;;;;;;;;;;5056881;28;21560;-60
2023/08/29 07:26:09;;;;;;;;;;;;;;;;;;5070122;28;19958;-60
2023/08/29 07:28:36;;;;;;;;;;;;;;;;;;5071644;28;19921;-60
2023/08/29 07:31:02;;;;;;;;;;;;;;;;;;5071118;28;20361;-61
2023/08/29 07:33:27;;;;;;;;;;;;;;;;;;5063499;28;19951;-60
2023/08/29 07:35:54;;;;;;;;;;;;;;;;;;5069967;28;19948;-59
2023/08/29 07:38:20;;;;;;;;;;;;;;;;;;5062402;28;19916;-59
2023/08/29 07:40:46;;;;;;;;;;;;;;;;;;5063339;28;19970;-59
2023/08/29 07:43:11;;;;;;;;;;;;;;;;;;5069594;28;20332;-60
2023/08/29 07:45:37;;;;;;;;;;;;;;;;;;5068237;28;19925;-60
2023/08/29 07:48:03;;;;;;;;;;;;;;;;;;5062455;28;19913;-60
2023/08/29 07:50:30;;;;;;;;;;;;;;;;;;5073826;28;20002;-60
2023/08/29 07:52:55;;;;;;;;;;;;;;;;;;5062504;28;20432;-59
2023/08/29 07:55:21;;;;;;;;;;;;;;;;;;5060057;28;19955;-59
2023/08/29 07:57:48;;;;;;;;;;;;;;;;;;5066217;28;19912;-60
2023/08/29 08:00:14;;;;;;;;;;;;;;;;;;5069301;28;20411;-60
2023/08/29 08:02:40;;;;;;;;;;;;;;;;;;5068787;28;19948;-60
2023/08/29 08:05:06;;;;;;;;;;;;;;;;;;5071430;28;19948;-60
2023/08/29 08:07:32;;;;;;;;;;;;;;;;;;5074864;28;19921;-60
2023/08/29 08:09:58;;;;;;;;;;;;;;;;;;5074832;28;20007;-61
2023/08/29 08:12:23;;;;;;;;;;;;;;;;;;5075003;28;20407;-60
2023/08/29 08:14:52;;;;;;;;;;;;;;;;;;5073750;28;19913;-60
2023/08/29 08:17:18;;;;;;;;;;;;;;;;;;5069748;28;20083;-59
2023/08/29 08:19:44;;;;;;;;;;;;;;;;;;5067490;28;19979;-60
2023/08/29 08:22:10;;;;;;;;;;;;;;;;;;5059931;28;20029;-60
2023/08/29 08:24:36;;;;;;;;;;;;;;;;;;5067685;28;19917;-59
2023/08/29 08:27:02;;;;;;;;;;;;;;;;;;5074214;28;20058;-60
2023/08/29 08:29:28;;;;;;;;;;;;;;;;;;5067313;28;19944;-57
2023/08/29 08:31:54;;;;;;;;;;;;;;;;;;5070219;28;20324;-57
2023/08/29 08:34:20;;;;;;;;;;;;;;;;;;5064705;28;20005;-59
2023/08/29 08:36:46;;;;;;;;;;;;;;;;;;5074381;28;19921;-57
2023/08/29 08:39:12;;;;;;;;;;;;;;;;;;5069396;28;20380;-57
2023/08/29 08:41:38;;;;;;;;;;;;;;;;;;5072524;28;19919;-56
2023/08/29 08:44:04;;;;;;;;;;;;;;;;;;5074172;28;20303;-59
2023/08/29 08:46:29;;;;;;;;;;;;;;;;;;5074111;28;19988;-57
2023/08/29 08:48:55;;;;;;;;;;;;;;;;;;5064571;28;19917;-57
2023/08/29 08:51:22;;;;;;;;;;;;;;;;;;5071459;28;20301;-57
2023/08/29 08:53:48;;;;;;;;;;;;;;;;;;5074426;28;19988;-56
2023/08/29 08:56:13;;;;;;;;;;;;;;;;;;5074140;28;20291;-57
2023/08/29 08:58:39;;;;;;;;;;;;;;;;;;5069697;28;19999;-57
2023/08/29 09:01:05;;;;;;;;;;;;;;;;;;5073505;28;19912;-57
2023/08/29 09:03:31;;;;;;;;;;;;;;;;;;5070718;28;19920;-55
2023/08/29 09:05:57;;;;;;;;;;;;;;;;;;5074224;28;19913;-56
2023/08/29 09:08:23;;;;;;;;;;;;;;;;;;5072585;28;19917;-57
2023/08/29 09:10:49;;;;;;;;;;;;;;;;;;5073492;28;19935;-57
2023/08/29 09:13:16;;;;;;;;;;;;;;;;;;5066784;28;19951;-57
2023/08/29 09:15:42;;;;;;;;;;;;;;;;;;5062323;28;19921;-57
2023/08/29 09:18:11;;;;;;;;;;;;;;;;;;5073559;28;19916;-57
2023/08/29 09:20:37;;;;;;;;;;;;;;;;;;5062393;28;20007;-56
2023/08/29 09:23:03;;;;;;;;;;;;;;;;;;5071734;28;20003;-57
2023/08/29 09:25:29;;;;;;;;;;;;;;;;;;5072197;28;20007;-57
2023/08/29 09:27:55;;;;;;;;;;;;;;;;;;5069130;28;19934;-56
2023/08/29 09:30:21;;;;;;;;;;;;;;;;;;5072916;28;20372;-57
2023/08/29 09:32:47;;;;;;;;;;;;;;;;;;5069798;28;19951;-59
2023/08/29 09:35:13;;;;;;;;;;;;;;;;;;5069083;28;20348;-58
2023/08/29 09:37:39;;;;;;;;;;;;;;;;;;5073492;28;20292;-58
2023/08/29 09:40:06;;;;;;;;;;;;;;;;;;5072692;28;19915;-60
2023/08/29 09:42:32;;;;;;;;;;;;;;;;;;5065750;28;19919;-61
2023/08/29 09:44:58;;;;;;;;;;;;;;;;;;5060674;28;19936;-61
2023/08/29 09:47:24;;;;;;;;;;;;;;;;;;5072800;28;20004;-61
2023/08/29 09:49:50;;;;;;;;;;;;;;;;;;5073146;28;19913;-61
2023/08/29 09:52:15;;;;;;;;;;;;;;;;;;5071783;28;19935;-61
2023/08/29 09:54:41;;;;;;;;;;;;;;;;;;5064642;28;19999;-61
2023/08/29 09:57:07;;;;;;;;;;;;;;;;;;5069308;28;20381;-61
2023/08/29 09:59:33;;;;;;;;;;;;;;;;;;5070174;28;19923;-61
2023/08/29 10:01:59;;;;;;;;;;;;;;;;;;5070519;28;19913;-61
2023/08/29 10:04:25;;;;;;;;;;;;;;;;;;5072787;28;20316;-61
2023/08/29 10:06:51;;;;;;;;;;;;;;;;;;5073172;28;19917;-61
2023/08/29 10:09:18;;;;;;;;;;;;;;;;;;5069410;28;19973;-61
2023/08/29 10:11:44;;;;;;;;;;;;;;;;;;5071806;28;19913;-61
2023/08/29 10:14:10;;;;;;;;;;;;;;;;;;5064779;28;19936;-61
2023/08/29 10:16:36;;;;;;;;;;;;;;;;;;5070527;28;20453;-61
2023/08/29 10:19:02;;;;;;;;;;;;;;;;;;5072282;28;20411;-61
2023/08/29 10:21:28;;;;;;;;;;;;;;;;;;5067064;28;19920;-61
2023/08/29 10:23:54;;;;;;;;;;;;;;;;;;5062795;28;21048;-61
2023/08/29 10:26:20;;;;;;;;;;;;;;;;;;5071753;28;19995;-61
2023/08/29 10:28:46;;;;;;;;;;;;;;;;;;5056691;28;19919;-61
2023/08/29 10:31:12;;;;;;;;;;;;;;;;;;5068624;28;20129;-61
2023/08/29 10:33:38;;;;;;;;;;;;;;;;;;5068612;28;19908;-61
2023/08/29 10:36:04;;;;;;;;;;;;;;;;;;5072312;28;20007;-61
2023/08/29 10:38:30;;;;;;;;;;;;;;;;;;5070336;28;19955;-61
2023/08/29 10:40:55;;;;;;;;;;;;;;;;;;5072014;28;20376;-61
2023/08/29 10:43:21;;;;;;;;;;;;;;;;;;5070701;28;19952;-61
2023/08/29 10:45:47;;;;;;;;;;;;;;;;;;5064827;28;19927;-61
2023/08/29 10:48:13;;;;;;;;;;;;;;;;;;5051434;28;19963;-62
2023/08/29 10:50:39;;;;;;;;;;;;;;;;;;5066780;28;19917;-61
2023/08/29 10:53:05;;;;;;;;;;;;;;;;;;5071491;28;19979;-61
2023/08/29 10:55:34;;;;;;;;;;;;;;;;;;5066401;28;20252;-61
2023/08/29 10:58:00;;;;;;;;;;;;;;;;;;5071750;28;19912;-61
2023/08/29 11:00:26;;;;;;;;;;;;;;;;;;5071263;28;20046;-61
2023/08/29 11:02:52;;;;;;;;;;;;;;;;;;5063640;28;19913;-61
2023/08/29 11:05:19;;;;;;;;;;;;;;;;;;5063217;28;19971;-61
2023/08/29 11:07:45;;;;;;;;;;;;;;;;;;5071279;28;20394;-61
2023/08/29 11:10:11;;;;;;;;;;;;;;;;;;5068258;28;20003;-61
2023/08/29 11:12:37;;;;;;;;;;;;;;;;;;5071489;28;19909;-61
2023/08/29 11:15:03;;;;;;;;;;;;;;;;;;5069845;28;19962;-61
2023/08/29 11:17:29;;;;;;;;;;;;;;;;;;5071226;28;20580;-61
2023/08/29 11:19:55;;;;;;;;;;;;;;;;;;5070400;28;19999;-59
2023/08/29 11:22:22;;;;;;;;;;;;;;;;;;5066632;28;20008;-60
2023/08/29 11:24:51;;;;;;;;;;;;;;;;;;5070971;28;19917;-61
2023/08/29 11:27:17;;;;;;;;;;;;;;;;;;5069710;28;20288;-61
2023/08/29 11:29:43;;;;;;;;;;;;;;;;;;5070958;28;19948;-61
2023/08/29 11:32:09;;;;;;;;;;;;;;;;;;5061549;28;19919;-61
2023/08/29 11:34:35;;;;;;;;;;;;;;;;;;5066965;28;20320;-61
2023/08/29 11:37:01;;;;;;;;;;;;;;;;;;5071540;28;19915;-61
2023/08/29 11:39:27;;;;;;;;;;;;;;;;;;5074498;28;19912;-61
2023/08/29 11:41:53;;;;;;;;;;;;;;;;;;5072076;28;19982;-61
2023/08/29 11:44:19;;;;;;;;;;;;;;;;;;5077178;28;19924;-60
2023/08/29 11:46:45;;;;;;;;;;;;;;;;;;5071805;28;20644;-59
2023/08/29 11:49:12;;;;;;;;;;;;;;;;;;5074100;28;20403;-61
2023/08/29 11:51:39;;;;;;;;;;;;;;;;;;5073556;28;20050;-61
2023/08/29 11:54:05;;;;;;;;;;;;;;;;;;5060866;28;20449;-61
2023/08/29 11:56:30;;;;;;;;;;;;;;;;;;5075405;28;20003;-61
2023/08/29 11:59:00;;;;;;;;;;;;;;;;;;5066875;28;20122;-60
2023/08/29 12:01:26;;;;;;;;;;;;;;;;;;5075234;28;20295;-65
2023/08/29 12:03:52;;;;;;;;;;;;;;;;;;5073083;28;20105;-64
2023/08/29 12:06:18;;;;;;;;;;;;;;;;;;5068461;28;19928;-65
2023/08/29 12:08:44;;;;;;;;;;;;;;;;;;5072271;28;20007;-64
2023/08/29 12:11:10;;;;;;;;;;;;;;;;;;5071492;28;19955;-64
2023/08/29 12:13:36;;;;;;;;;;;;;;;;;;5074720;28;19999;-62
2023/08/29 12:16:02;;;;;;;;;;;;;;;;;;5067682;28;19912;-63
2023/08/29 12:18:28;;;;;;;;;;;;;;;;;;5070467;28;20451;-64
2023/08/29 12:20:54;;;;;;;;;;;;;;;;;;5056452;28;19925;-65
2023/08/29 12:23:20;;;;;;;;;;;;;;;;;;5074622;28;19919;-63
2023/08/29 12:25:46;;;;;;;;;;;;;;;;;;5073134;28;20011;-64
2023/08/29 12:28:13;;;;;;;;;;;;;;;;;;5070620;28;19912;-66
2023/08/29 12:30:39;;;;;;;;;;;;;;;;;;5063383;28;19912;-65
2023/08/29 12:33:05;;;;;;;;;;;;;;;;;;5058470;28;19960;-62
2023/08/29 12:35:31;;;;;;;;;;;;;;;;;;5069463;28;19916;-64
2023/08/29 12:37:57;;;;;;;;;;;;;;;;;;5065953;28;19960;-65
2023/08/29 12:40:23;;;;;;;;;;;;;;;;;;5064540;28;19916;-65
2023/08/29 12:42:51;;;;;;;;;;;;;;;;;;5074452;28;19915;-65
2023/08/29 12:45:18;;;;;;;;;;;;;;;;;;5070794;28;20307;-65
2023/08/29 12:47:47;;;;;;;;;;;;;;;;;;5068890;28;20396;-65
2023/08/29 12:50:13;;;;;;;;;;;;;;;;;;5068377;28;19920;-65
2023/08/29 12:52:39;;;;;;;;;;;;;;;;;;5085623;28;20006;-66
2023/08/29 12:55:05;;;;;;;;;;;;;;;;;;5071605;28;19955;-66
2023/08/29 12:57:31;;;;;;;;;;;;;;;;;;5073085;28;19908;-65
2023/08/29 12:59:57;;;;;;;;;;;;;;;;;;5066202;28;19951;-64
2023/08/29 13:02:23;;;;;;;;;;;;;;;;;;5069165;28;20007;-65
2023/08/29 13:04:48;;;;;;;;;;;;;;;;;;5058959;28;19930;-65
2023/08/29 13:07:14;;;;;;;;;;;;;;;;;;5053183;28;20396;-64
2023/08/29 13:09:40;;;;;;;;;;;;;;;;;;5063799;28;19958;-60
2023/08/29 13:12:06;;;;;;;;;;;;;;;;;;5067477;28;19912;-60
2023/08/29 13:14:33;;;;;;;;;;;;;;;;;;5059212;28;19951;-61
2023/08/29 13:16:58;;;;;;;;;;;;;;;;;;5061229;28;20340;-60
2023/08/29 13:19:24;;;;;;;;;;;;;;;;;;5057797;28;19955;-60
2023/08/29 13:21:51;;;;;;;;;;;;;;;;;;5056408;28;19912;-60
2023/08/29 13:24:18;;;;;;;;;;;;;;;;;;5059054;28;19923;-60
2023/08/29 13:26:44;;;;;;;;;;;;;;;;;;5056616;28;19917;-60
2023/08/29 13:29:10;;;;;;;;;;;;;;;;;;5061411;28;19919;-59
2023/08/29 13:31:36;;;;;;;;;;;;;;;;;;5066553;28;19917;-60
2023/08/29 13:34:01;;;;;;;;;;;;;;;;;;5069709;28;20394;-60
2023/08/29 13:36:27;;;;;;;;;;;;;;;;;;5066024;28;19951;-60
2023/08/29 13:38:53;;;;;;;;;;;;;;;;;;5053309;28;20475;-59
2023/08/29 13:41:19;;;;;;;;;;;;;;;;;;5057686;28;19951;-61
2023/08/29 13:43:45;;;;;;;;;;;;;;;;;;5063739;28;19916;-61
2023/08/29 13:46:13;;;;;;;;;;;;;;;;;;5067137;28;19979;-59
2023/08/29 13:48:39;;;;;;;;;;;;;;;;;;5066028;28;20411;-60
2023/08/29 13:51:05;;;;;;;;;;;;;;;;;;5066042;28;19956;-60
2023/08/29 13:53:30;;;;;;;;;;;;;;;;;;5058458;28;19919;-60
2023/08/29 13:55:56;;;;;;;;;;;;;;;;;;5067745;28;20391;-60
2023/08/29 13:58:22;;;;;;;;;;;;;;;;;;5067392;28;19920;-60
2023/08/29 14:00:48;;;;;;;;;;;;;;;;;;5062657;28;20498;-60
2023/08/29 14:03:14;;;;;;;;;;;;;;;;;;5064142;28;20387;-60
2023/08/29 14:05:40;;;;;;;;;;;;;;;;;;5071773;28;20376;-60
2023/08/29 14:08:06;;;;;;;;;;;;;;;;;;5066412;28;19958;-60
2023/08/29 14:10:32;;;;;;;;;;;;;;;;;;5061008;28;19923;-60
2023/08/29 14:12:58;;;;;;;;;;;;;;;;;;5068686;28;19916;-59
2023/08/29 14:15:26;;;;;;;;;;;;;;;;;;5070333;28;19962;-60
2023/08/29 14:17:52;;;;;;;;;;;;;;;;;;5065901;28;20345;-60
2023/08/29 14:20:18;;;;;;;;;;;;;;;;;;5066277;28;19971;-60
2023/08/29 14:22:44;;;;;;;;;;;;;;;;;;5065015;28;20007;-65
2023/08/29 14:25:09;;;;;;;;;;;;;;;;;;5066890;28;19916;-59
2023/08/29 14:27:35;;;;;;;;;;;;;;;;;;5055773;28;19960;-60
2023/08/29 14:30:01;;;;;;;;;;;;;;;;;;5057002;28;19928;-61
2023/08/29 14:32:27;;;;;;;;;;;;;;;;;;5048904;28;19927;-61
2023/08/29 14:34:53;;;;;;;;;;;;;;;;;;5059584;28;19958;-61
2023/08/29 14:37:19;;;;;;;;;;;;;;;;;;5070350;28;20295;-61
2023/08/29 14:39:45;;;;;;;;;;;;;;;;;;5068088;28;19978;-61
2023/08/29 14:42:11;;;;;;;;;;;;;;;;;;5064815;28;19971;-60
2023/08/29 14:44:37;;;;;;;;;;;;;;;;;;5063553;28;19927;-60
2023/08/29 14:47:03;;;;;;;;;;;;;;;;;;5069839;28;19916;-60
2023/08/29 14:49:29;;;;;;;;;;;;;;;;;;5066435;28;19951;-61
2023/08/29 14:51:54;;;;;;;;;;;;;;;;;;5064447;28;20396;-60
2023/08/29 14:54:20;;;;;;;;;;;;;;;;;;5057830;28;20000;-60
2023/08/29 14:56:46;;;;;;;;;;;;;;;;;;5067083;28;19977;-60
2023/08/29 14:59:12;;;;;;;;;;;;;;;;;;5065248;28;20388;-60
2023/08/29 15:01:39;;;;;;;;;;;;;;;;;;5057613;28;19969;-60
2023/08/29 15:04:05;;;;;;;;;;;;;;;;;;5064742;28;19913;-60
2023/08/29 15:06:32;;;;;;;;;;;;;;;;;;5066104;28;20016;-61
2023/08/29 15:08:58;;;;;;;;;;;;;;;;;;5067226;28;19913;-60
2023/08/29 15:11:24;;;;;;;;;;;;;;;;;;5064070;28;20324;-61
2023/08/29 15:13:50;;;;;;;;;;;;;;;;;;5067856;28;19923;-60
2023/08/29 15:16:15;;;;;;;;;;;;;;;;;;5064784;28;19919;-61
2023/08/29 15:18:41;;;;;;;;;;;;;;;;;;5061976;28;19924;-61
2023/08/29 15:21:08;;;;;;;;;;;;;;;;;;5065874;28;20029;-60
2023/08/29 15:23:34;;;;;;;;;;;;;;;;;;5066620;28;19928;-60
2023/08/29 15:26:03;;;;;;;;;;;;;;;;;;5065493;28;19924;-60
2023/08/29 15:28:29;;;;;;;;;;;;;;;;;;5064894;28;19916;-60
2023/08/29 15:30:58;;;;;;;;;;;;;;;;;;5060580;28;20411;-57
2023/08/29 15:33:24;;;;;;;;;;;;;;;;;;5063829;28;19938;-57
2023/08/29 15:35:50;;;;;;;;;;;;;;;;;;5066001;28;19968;-58
2023/08/29 15:38:15;;;;;;;;;;;;;;;;;;5060448;28;19955;-58
2023/08/29 15:40:42;;;;;;;;;;;;;;;;;;5055851;28;19916;-58
2023/08/29 15:43:09;;;;;;;;;;;;;;;;;;5059696;28;19912;-59
2023/08/29 15:45:35;;;;;;;;;;;;;;;;;;5064102;28;19925;-59
2023/08/29 15:48:01;;;;;;;;;;;;;;;;;;5062223;28;20380;-57
2023/08/29 15:50:27;;;;;;;;;;;;;;;;;;5069081;28;19950;-57
2023/08/29 15:52:53;;;;;;;;;;;;;;;;;;5065311;28;20081;-59
2023/08/29 15:55:18;;;;;;;;;;;;;;;;;;5066822;28;19921;-58
2023/08/29 15:57:44;;;;;;;;;;;;;;;;;;5071040;28;19915;-57
2023/08/29 16:00:14;;;;;;;;;;;;;;;;;;5066067;28;20399;-57
2023/08/29 16:02:40;;;;;;;;;;;;;;;;;;5070934;28;19952;-58
2023/08/29 16:05:06;;;;;;;;;;;;;;;;;;5063114;28;19917;-57
2023/08/29 16:07:32;;;;;;;;;;;;;;;;;;5063342;28;19913;-58
2023/08/29 16:09:58;;;;;;;;;;;;;;;;;;5054034;28;20287;-57
2023/08/29 16:12:26;;;;;;;;;;;;;;;;;;5061509;28;19919;-58
2023/08/29 16:14:52;;;;;;;;;;;;;;;;;;5067971;28;19959;-57
2023/08/29 16:17:18;;;;;;;;;;;;;;;;;;5066883;28;19956;-57
2023/08/29 16:19:44;;;;;;;;;;;;;;;;;;5056273;28;19928;-59
2023/08/29 16:22:10;;;;;;;;;;;;;;;;;;5058343;28;19923;-57
2023/08/29 16:24:35;;;;;;;;;;;;;;;;;;5057256;28;20289;-59
2023/08/29 16:27:03;;;;;;;;;;;;;;;;;;5060366;28;20437;-59
2023/08/29 16:29:30;;;;;;;;;;;;;;;;;;5063643;28;20277;-58
2023/08/29 16:31:56;;;;;;;;;;;;;;;;;;5067633;28;20313;-58
2023/08/29 16:34:22;;;;;;;;;;;;;;;;;;5059986;28;19941;-58
2023/08/29 16:36:47;;;;;;;;;;;;;;;;;;5074646;28;20014;-57